createdAt,value
2022-12-04T00:00:32.648Z,17.30
2022-12-04T00:02:59.474Z,17.80
2022-12-04T00:05:26.279Z,17.13
2022-12-04T00:07:53.117Z,16.83
2022-12-04T00:10:20.061Z,16.20
2022-12-04T00:12:46.866Z,17.63
2022-12-04T00:15:25.197Z,17.40
2022-12-04T00:17:52.899Z,17.30
2022-12-04T00:20:19.895Z,17.20
2022-12-04T00:22:46.951Z,16.23
2022-12-04T00:25:13.749Z,18.63
2022-12-04T00:27:40.706Z,16.37
2022-12-04T00:30:08.414Z,16.53
2022-12-04T00:32:35.405Z,17.10
2022-12-04T00:35:02.299Z,17.13
2022-12-04T00:37:29.238Z,18.10
2022-12-04T00:39:56.221Z,17.83
2022-12-04T00:42:23.298Z,17.90
2022-12-04T00:44:50.169Z,17.70
2022-12-04T00:47:16.944Z,17.80
2022-12-04T00:49:43.806Z,17.67
2022-12-04T00:52:10.628Z,16.50
2022-12-04T00:54:37.428Z,17.00
2022-12-04T00:57:04.346Z,17.27
2022-12-04T00:59:31.160Z,17.60
2022-12-04T01:01:57.969Z,17.90
2022-12-04T01:04:24.784Z,16.90
2022-12-04T01:06:51.676Z,17.23
2022-12-04T01:09:18.884Z,17.60
2022-12-04T01:11:46.062Z,16.33
2022-12-04T01:14:12.887Z,16.27
2022-12-04T01:16:40.609Z,17.77
2022-12-04T01:19:11.295Z,17.73
2022-12-04T01:21:39.060Z,16.30
2022-12-04T01:24:06.589Z,18.40
2022-12-04T01:26:33.577Z,17.23
2022-12-04T01:29:00.616Z,17.53
2022-12-04T01:31:27.633Z,18.47
2022-12-04T01:33:54.545Z,18.90
2022-12-04T01:36:25.818Z,18.40
2022-12-04T01:38:52.818Z,19.63
2022-12-04T01:41:27.611Z,19.23
2022-12-04T01:44:15.875Z,19.03
2022-12-04T01:46:45.977Z,18.77
2022-12-04T01:49:38.387Z,19.47
2022-12-04T01:52:21.839Z,19.50
2022-12-04T01:54:59.380Z,18.40
2022-12-04T01:57:31.445Z,20.30
2022-12-04T02:00:09.953Z,18.23
2022-12-04T02:02:43.634Z,18.73
2022-12-04T02:05:21.820Z,19.07
2022-12-04T02:07:52.045Z,17.73
2022-12-04T02:10:24.398Z,20.20
2022-12-04T02:13:09.538Z,19.80
2022-12-04T02:16:23.302Z,19.13
2022-12-04T02:19:00.725Z,17.47
2022-12-04T02:21:37.919Z,18.60
2022-12-04T02:24:37.200Z,20.50
2022-12-04T02:27:24.856Z,19.53
2022-12-04T02:29:59.984Z,19.00
2022-12-04T02:32:50.579Z,19.63
2022-12-04T02:35:40.311Z,19.83
2022-12-04T02:38:18.666Z,18.97
2022-12-04T02:41:03.276Z,19.73
2022-12-04T02:43:37.729Z,20.70
2022-12-04T02:46:14.071Z,20.20
2022-12-04T02:48:43.219Z,19.10
2022-12-04T02:51:14.929Z,18.77
2022-12-04T02:53:48.641Z,20.30
2022-12-04T02:56:22.647Z,20.10
2022-12-04T02:58:59.197Z,19.33
2022-12-04T03:01:40.706Z,19.87
2022-12-04T03:04:28.318Z,19.63
2022-12-04T03:07:03.255Z,19.00
2022-12-04T03:09:45.376Z,18.73
2022-12-04T03:12:40.235Z,19.53
2022-12-04T03:15:17.402Z,18.07
2022-12-04T03:18:09.489Z,20.83
2022-12-04T03:20:38.810Z,19.37
2022-12-04T03:23:39.685Z,18.90
2022-12-04T03:26:28.738Z,19.20
2022-12-04T03:29:15.827Z,20.03
2022-12-04T03:32:14.307Z,19.67
2022-12-04T03:35:07.762Z,20.70
2022-12-04T03:37:54.361Z,21.03
2022-12-04T03:40:48.775Z,20.30
2022-12-04T03:43:37.737Z,21.63
2022-12-04T03:46:25.017Z,22.03
2022-12-04T03:49:07.292Z,21.40
2022-12-04T03:51:43.692Z,21.57
2022-12-04T03:54:21.692Z,22.03
2022-12-04T03:56:56.291Z,22.50
2022-12-04T03:59:30.354Z,20.27
2022-12-04T04:02:00.508Z,21.80
2022-12-04T04:04:39.473Z,22.00
2022-12-04T04:07:33.553Z,22.77
2022-12-04T04:10:10.940Z,22.37
2022-12-04T04:12:44.226Z,22.73
2022-12-04T04:15:34.942Z,22.53
2022-12-04T04:18:20.801Z,21.43
2022-12-04T04:21:15.834Z,23.90
2022-12-04T04:24:08.584Z,20.30
2022-12-04T04:26:42.405Z,21.77
2022-12-04T04:29:12.413Z,22.07
2022-12-04T04:31:50.366Z,21.10
2022-12-04T04:34:55.311Z,21.50
2022-12-04T04:37:47.888Z,20.20
2022-12-04T04:40:37.265Z,21.27
2022-12-04T04:43:11.031Z,20.53
2022-12-04T04:45:47.951Z,19.43
2022-12-04T04:48:23.736Z,18.90
2022-12-04T04:50:51.025Z,19.87
2022-12-04T04:53:26.940Z,21.33
2022-12-04T04:55:54.204Z,21.20
2022-12-04T04:58:22.002Z,21.83
2022-12-04T05:01:04.244Z,21.07
2022-12-04T05:03:32.048Z,21.10
2022-12-04T05:05:59.345Z,21.33
2022-12-04T05:08:26.423Z,23.10
2022-12-04T05:10:54.012Z,23.47
2022-12-04T05:13:21.959Z,20.57
2022-12-04T05:16:03.359Z,23.77
2022-12-04T05:18:31.207Z,22.53
2022-12-04T05:20:58.184Z,22.37
2022-12-04T05:23:25.687Z,22.00
2022-12-04T05:26:00.978Z,21.20
2022-12-04T05:28:28.427Z,21.30
2022-12-04T05:31:01.438Z,22.80
2022-12-04T05:33:29.088Z,21.63
2022-12-04T05:36:08.440Z,21.80
2022-12-04T05:38:36.078Z,23.07
2022-12-04T05:41:05.677Z,22.03
2022-12-04T05:43:33.151Z,21.40
2022-12-04T05:46:08.141Z,20.20
2022-12-04T05:48:35.976Z,22.07
2022-12-04T05:51:08.177Z,20.07
2022-12-04T05:53:35.435Z,20.00
2022-12-04T05:56:04.320Z,22.13
2022-12-04T05:58:31.671Z,22.27
2022-12-04T06:00:58.467Z,22.77
2022-12-04T06:03:25.341Z,20.90
2022-12-04T06:05:52.273Z,22.93
2022-12-04T06:08:19.182Z,21.97
2022-12-04T06:10:46.049Z,20.67
2022-12-04T06:13:12.972Z,21.77
2022-12-04T06:15:40.572Z,21.33
2022-12-04T06:18:07.749Z,21.40
2022-12-04T06:20:35.031Z,20.97
2022-12-04T06:23:02.039Z,20.10
2022-12-04T06:25:28.979Z,23.20
2022-12-04T06:27:55.989Z,20.57
2022-12-04T06:30:22.951Z,19.27
2022-12-04T06:32:49.893Z,20.50
2022-12-04T06:35:16.866Z,18.97
2022-12-04T06:37:43.681Z,19.80
2022-12-04T06:40:11.037Z,20.10
2022-12-04T06:42:37.866Z,20.50
2022-12-04T06:45:05.460Z,20.93
2022-12-04T06:47:32.342Z,21.93
2022-12-04T06:49:59.353Z,22.53
2022-12-04T06:52:26.267Z,22.50
2022-12-04T06:54:53.196Z,21.47
2022-12-04T06:57:20.014Z,21.60
2022-12-04T06:59:46.789Z,22.40
2022-12-04T07:02:13.760Z,21.97
2022-12-04T07:04:40.693Z,21.77
2022-12-04T07:07:10.089Z,22.67
2022-12-04T07:09:37.271Z,22.87
2022-12-04T07:12:04.444Z,24.10
2022-12-04T07:14:32.194Z,25.10
2022-12-04T07:16:59.042Z,19.13
2022-12-04T07:19:25.933Z,20.87
2022-12-04T07:21:52.724Z,19.73
2022-12-04T07:24:19.609Z,23.63
2022-12-04T07:26:46.538Z,23.00
2022-12-04T07:29:13.614Z,22.93
2022-12-04T07:31:40.762Z,23.77
2022-12-04T07:34:07.913Z,22.77
2022-12-04T07:36:34.749Z,24.10
2022-12-04T07:39:01.627Z,24.17
2022-12-04T07:41:28.435Z,25.07
2022-12-04T07:43:55.339Z,22.63
2022-12-04T07:46:25.758Z,21.87
2022-12-04T07:48:55.280Z,21.67
2022-12-04T07:51:26.063Z,21.67
2022-12-04T07:53:54.808Z,21.07
2022-12-04T07:56:21.893Z,19.17
2022-12-04T07:58:48.799Z,21.53
2022-12-04T08:01:23.016Z,21.10
2022-12-04T08:03:53.013Z,21.37
2022-12-04T08:06:22.347Z,20.03
2022-12-04T08:08:49.967Z,21.43
2022-12-04T08:11:22.376Z,20.47
2022-12-04T08:13:57.606Z,21.47
2022-12-04T08:16:25.829Z,21.63
2022-12-04T08:18:54.127Z,20.53
2022-12-04T08:21:24.954Z,20.90
2022-12-04T08:23:54.316Z,20.57
2022-12-04T08:26:24.264Z,19.30
2022-12-04T08:28:54.470Z,20.03
2022-12-04T08:31:27.884Z,19.17
2022-12-04T08:33:57.378Z,18.53
2022-12-04T08:36:24.840Z,19.90
2022-12-04T08:38:52.272Z,21.57
2022-12-04T08:41:23.902Z,20.07
2022-12-04T08:43:54.447Z,18.87
2022-12-04T08:46:22.503Z,17.93
2022-12-04T08:48:49.526Z,18.53
2022-12-04T08:51:29.674Z,18.67
2022-12-04T08:53:59.494Z,19.90
2022-12-04T08:56:27.841Z,17.73
2022-12-04T08:58:56.639Z,18.80
2022-12-04T09:01:24.069Z,19.07
2022-12-04T09:03:51.059Z,18.33
2022-12-04T09:06:18.332Z,19.03
2022-12-04T09:08:45.277Z,19.00
2022-12-04T09:11:21.860Z,19.30
2022-12-04T09:13:48.944Z,19.70
2022-12-04T09:16:22.553Z,19.90
2022-12-04T09:18:49.723Z,21.37
2022-12-04T09:21:20.199Z,18.67
2022-12-04T09:23:47.380Z,19.37
2022-12-04T09:26:22.019Z,17.97
2022-12-04T09:28:50.233Z,17.90
2022-12-04T09:31:19.014Z,18.30
2022-12-04T09:33:46.347Z,19.00
2022-12-04T09:36:16.301Z,19.07
2022-12-04T09:38:49.977Z,19.10
2022-12-04T09:42:00.136Z,16.60
2022-12-04T09:44:41.059Z,17.77
2022-12-04T09:47:34.386Z,17.33
2022-12-04T09:50:32.840Z,16.20
2022-12-04T09:53:09.062Z,17.20
2022-12-04T09:55:49.309Z,17.70
2022-12-04T09:58:40.028Z,16.77
2022-12-04T10:01:27.546Z,16.13
2022-12-04T10:03:59.877Z,17.23
2022-12-04T10:06:53.688Z,16.87
2022-12-04T10:09:31.797Z,17.03
2022-12-04T10:12:20.237Z,17.57
2022-12-04T10:15:23.500Z,16.40
2022-12-04T10:18:39.311Z,16.07
2022-12-04T10:21:18.275Z,17.17
2022-12-04T10:24:09.512Z,15.67
2022-12-04T10:26:47.083Z,16.33
2022-12-04T10:29:22.961Z,16.53
2022-12-04T10:31:54.862Z,16.73
2022-12-04T10:34:29.541Z,16.57
2022-12-04T10:37:06.805Z,17.20
2022-12-04T10:39:43.088Z,15.27
2022-12-04T10:42:21.538Z,15.97
2022-12-04T10:44:48.360Z,15.60
2022-12-04T10:47:15.427Z,15.83
2022-12-04T10:49:42.840Z,15.30
2022-12-04T10:52:13.597Z,15.17
2022-12-04T10:54:48.740Z,16.10
2022-12-04T10:57:16.392Z,16.23
2022-12-04T10:59:56.198Z,14.83
2022-12-04T11:02:27.986Z,15.40
2022-12-04T11:05:01.775Z,14.23
2022-12-04T11:07:34.382Z,15.93
2022-12-04T11:10:22.928Z,15.30
2022-12-04T11:13:15.981Z,14.07
2022-12-04T11:15:52.552Z,14.07
2022-12-04T11:18:24.463Z,14.27
2022-12-04T11:20:56.484Z,14.57
2022-12-04T11:23:24.349Z,14.50
2022-12-04T11:25:54.714Z,15.50
2022-12-04T11:28:41.097Z,21.20
2022-12-04T11:31:11.168Z,15.57
2022-12-04T11:33:43.671Z,15.33
2022-12-04T11:36:30.820Z,15.20
2022-12-04T11:39:13.487Z,15.10
2022-12-04T11:41:40.424Z,14.70
2022-12-04T11:44:22.390Z,15.67
2022-12-04T11:46:59.093Z,15.17
2022-12-04T11:49:27.589Z,16.80
2022-12-04T11:52:38.855Z,22.20
2022-12-04T11:55:29.118Z,17.13
2022-12-04T11:58:11.191Z,16.07
2022-12-04T12:00:57.417Z,15.97
2022-12-04T12:03:42.729Z,15.03
2022-12-04T12:06:30.634Z,16.40
2022-12-04T12:09:14.251Z,16.17
2022-12-04T12:12:12.342Z,16.37
2022-12-04T12:15:04.076Z,15.83
2022-12-04T12:17:47.835Z,15.13
2022-12-04T12:20:38.259Z,15.33
2022-12-04T12:23:48.803Z,14.57
2022-12-04T12:26:18.318Z,14.37
2022-12-04T12:29:52.456Z,14.07
2022-12-04T12:32:43.455Z,13.47
2022-12-04T12:35:36.373Z,14.30
2022-12-04T12:38:11.121Z,13.90
2022-12-04T12:40:43.398Z,14.73
2022-12-04T12:43:16.697Z,14.90
2022-12-04T12:46:01.282Z,17.17
2022-12-04T12:48:58.591Z,17.37
2022-12-04T12:51:42.256Z,15.10
2022-12-04T12:54:27.226Z,16.27
2022-12-04T12:57:03.174Z,15.77
2022-12-04T12:59:32.441Z,14.50
2022-12-04T13:02:14.140Z,14.03
2022-12-04T13:04:44.603Z,13.97
2022-12-04T13:07:58.086Z,14.60
2022-12-04T13:10:43.883Z,13.90
2022-12-04T13:13:31.050Z,13.23
2022-12-04T13:16:05.350Z,13.57
2022-12-04T13:18:57.036Z,14.03
2022-12-04T13:21:42.447Z,14.73
2022-12-04T13:24:36.220Z,15.23
2022-12-04T13:27:34.752Z,14.67
2022-12-04T13:30:14.907Z,13.80
2022-12-04T13:33:00.059Z,13.10
2022-12-04T13:35:50.427Z,14.50
2022-12-04T13:39:06.890Z,14.03
2022-12-04T13:41:39.141Z,15.07
2022-12-04T13:44:24.311Z,17.13
2022-12-04T13:47:02.610Z,19.03
2022-12-04T13:49:32.554Z,17.40
2022-12-04T13:52:02.546Z,16.10
2022-12-04T13:54:36.523Z,20.83
2022-12-04T13:57:15.380Z,26.57
2022-12-04T13:59:43.484Z,16.47
2022-12-04T14:02:55.574Z,19.20
2022-12-04T14:05:32.811Z,15.63
2022-12-04T14:08:24.341Z,16.27
2022-12-04T14:11:07.355Z,15.73
2022-12-04T14:13:46.126Z,15.67
2022-12-04T14:16:35.885Z,15.40
2022-12-04T14:19:04.304Z,16.90
2022-12-04T14:21:45.636Z,15.70
2022-12-04T14:24:35.995Z,15.87
2022-12-04T14:27:42.809Z,16.40
2022-12-04T14:30:29.653Z,15.40
2022-12-04T14:33:20.933Z,15.10
2022-12-04T14:36:11.491Z,15.80
2022-12-04T14:38:39.352Z,16.07
2022-12-04T14:41:06.481Z,16.07
2022-12-04T14:43:41.431Z,16.13
2022-12-04T14:46:35.078Z,17.40
2022-12-04T14:49:35.759Z,16.00
2022-12-04T14:52:25.608Z,15.57
2022-12-04T14:55:07.587Z,14.80
2022-12-04T14:58:25.004Z,15.70
2022-12-04T15:00:54.994Z,14.43
2022-12-04T15:03:22.771Z,16.63
2022-12-04T15:05:51.271Z,15.33
2022-12-04T15:08:20.270Z,15.23
2022-12-04T15:11:09.686Z,15.37
2022-12-04T15:13:38.616Z,14.00
2022-12-04T15:16:19.335Z,14.33
2022-12-04T15:19:00.650Z,15.40
2022-12-04T15:21:45.901Z,14.63
2022-12-04T15:24:20.172Z,16.10
2022-12-04T15:26:48.532Z,19.23
2022-12-04T15:29:24.047Z,23.50
2022-12-04T15:31:56.884Z,16.30
2022-12-04T15:34:45.626Z,14.77
2022-12-04T15:37:28.996Z,15.57
2022-12-04T15:39:57.530Z,14.33
2022-12-04T15:42:24.576Z,14.93
2022-12-04T15:45:01.935Z,14.23
2022-12-04T15:47:32.892Z,14.33
2022-12-04T15:50:15.830Z,13.53
2022-12-04T15:53:05.414Z,14.00
2022-12-04T15:55:49.885Z,14.03
2022-12-04T15:58:39.161Z,14.47
2022-12-04T16:01:09.722Z,14.90
2022-12-04T16:03:42.667Z,15.97
2022-12-04T16:06:29.175Z,15.53
2022-12-04T16:09:01.379Z,16.50
2022-12-04T16:11:36.626Z,16.57
2022-12-04T16:14:08.092Z,18.93
2022-12-04T16:16:37.508Z,19.77
2022-12-04T16:19:27.556Z,19.97
2022-12-04T16:21:57.883Z,19.23
2022-12-04T16:24:25.167Z,21.20
2022-12-04T16:26:55.260Z,19.67
2022-12-04T16:29:23.558Z,20.20
2022-12-04T16:31:51.095Z,20.67
2022-12-04T16:34:18.264Z,22.90
2022-12-04T16:36:45.248Z,22.87
2022-12-04T16:39:12.068Z,23.60
2022-12-04T16:41:40.132Z,24.30
2022-12-04T16:44:14.925Z,23.20
2022-12-04T16:46:43.084Z,23.30
2022-12-04T16:49:12.924Z,22.43
2022-12-04T16:51:46.114Z,23.03
2022-12-04T16:54:14.037Z,22.60
2022-12-04T16:56:41.717Z,22.90
2022-12-04T16:59:11.956Z,22.60
2022-12-04T17:01:47.500Z,24.50
2022-12-04T17:04:15.565Z,23.03
2022-12-04T17:06:42.655Z,23.03
2022-12-04T17:09:09.804Z,22.43
2022-12-04T17:11:36.706Z,21.87
2022-12-04T17:14:07.051Z,21.87
2022-12-04T17:16:43.310Z,20.93
2022-12-04T17:19:11.596Z,19.20
2022-12-04T17:21:40.252Z,18.60
2022-12-04T17:24:08.260Z,17.87
2022-12-04T17:26:35.143Z,18.10
2022-12-04T17:29:01.951Z,18.73
2022-12-04T17:31:28.896Z,17.77
2022-12-04T17:33:56.903Z,18.03
2022-12-04T17:36:27.513Z,18.33
2022-12-04T17:38:57.766Z,18.80
2022-12-04T17:41:25.420Z,17.67
2022-12-04T17:43:52.308Z,17.73
2022-12-04T17:46:22.809Z,17.43
2022-12-04T17:48:50.019Z,18.97
2022-12-04T17:51:22.831Z,18.33
2022-12-04T17:53:49.859Z,17.37
2022-12-04T17:56:22.495Z,17.17
2022-12-04T17:58:50.574Z,16.03
2022-12-04T18:01:24.697Z,15.93
2022-12-04T18:04:01.959Z,17.03
2022-12-04T18:06:39.023Z,15.50
2022-12-04T18:09:08.882Z,15.87
2022-12-04T18:11:38.326Z,14.43
2022-12-04T18:14:12.330Z,16.07
2022-12-04T18:16:44.501Z,17.20
2022-12-04T18:19:12.709Z,22.60
2022-12-04T18:21:40.350Z,18.50
2022-12-04T18:24:07.791Z,15.23
2022-12-04T18:26:45.934Z,15.43
2022-12-04T18:29:18.050Z,15.47
2022-12-04T18:31:46.262Z,15.20
2022-12-04T18:34:13.854Z,15.80
2022-12-04T18:36:42.571Z,16.93
2022-12-04T18:39:15.270Z,15.17
2022-12-04T18:41:42.617Z,15.43
2022-12-04T18:44:10.688Z,15.67
2022-12-04T18:46:38.593Z,14.60
2022-12-04T18:49:07.012Z,15.87
2022-12-04T18:51:40.307Z,15.40
2022-12-04T18:54:22.819Z,14.93
2022-12-04T18:56:50.643Z,15.53
2022-12-04T18:59:21.288Z,15.03
2022-12-04T19:01:50.375Z,15.00
2022-12-04T19:04:19.323Z,17.10
2022-12-04T19:06:53.635Z,16.00
2022-12-04T19:09:47.274Z,16.20
2022-12-04T19:12:12.910Z,16.03
2022-12-04T19:14:40.048Z,16.10
2022-12-04T19:17:07.386Z,14.87
2022-12-04T19:19:34.322Z,15.27
2022-12-04T19:22:02.039Z,14.90
2022-12-04T19:24:28.880Z,14.43
2022-12-04T19:26:56.761Z,15.57
2022-12-04T19:29:23.789Z,14.53
2022-12-04T19:31:54.680Z,14.13
2022-12-04T19:34:24.628Z,14.47
2022-12-04T19:36:53.998Z,14.33
2022-12-04T19:39:20.835Z,13.87
2022-12-04T19:41:47.688Z,15.07
2022-12-04T19:44:46.704Z,15.10
2022-12-04T19:47:01.633Z,14.97
2022-12-04T19:49:29.559Z,14.67
2022-12-04T19:51:56.431Z,14.37
2022-12-04T19:54:23.774Z,14.07
2022-12-04T19:56:52.485Z,13.70
2022-12-04T19:59:20.418Z,13.30
2022-12-04T20:01:47.574Z,13.43
2022-12-04T20:04:14.523Z,13.63
2022-12-04T20:06:44.539Z,12.57
2022-12-04T20:09:20.174Z,13.97
2022-12-04T20:11:47.602Z,12.97
2022-12-04T20:14:14.495Z,12.80
2022-12-04T20:16:42.008Z,13.03
2022-12-04T20:19:14.941Z,12.83
2022-12-04T20:21:42.724Z,13.40
2022-12-04T20:24:14.618Z,14.43
2022-12-04T20:26:43.902Z,13.53
2022-12-04T20:29:14.647Z,13.83
2022-12-04T20:31:45.096Z,14.00
2022-12-04T20:34:16.306Z,12.80
2022-12-04T20:36:45.458Z,13.20
2022-12-04T20:39:13.971Z,12.57
2022-12-04T20:41:41.336Z,13.30
2022-12-04T20:44:13.243Z,13.43
2022-12-04T20:46:40.646Z,12.87
2022-12-04T20:49:17.223Z,12.83
2022-12-04T20:51:47.976Z,13.43
2022-12-04T20:54:18.568Z,12.83
2022-12-04T20:56:48.495Z,11.87
2022-12-04T20:59:16.426Z,12.77
2022-12-04T21:01:43.556Z,11.00
2022-12-04T21:04:12.729Z,11.77
2022-12-04T21:06:40.965Z,11.10
2022-12-04T21:09:18.255Z,12.20
2022-12-04T21:11:49.135Z,11.90
2022-12-04T21:14:41.996Z,11.30
2022-12-04T21:17:14.368Z,11.70
2022-12-04T21:19:41.182Z,12.37
2022-12-04T21:22:08.718Z,11.47
2022-12-04T21:24:38.454Z,11.13
2022-12-04T21:27:13.290Z,12.23
2022-12-04T21:29:43.559Z,12.00
2022-12-04T21:32:10.387Z,12.20
2022-12-04T21:34:37.175Z,12.23
2022-12-04T21:37:04.063Z,11.37
2022-12-04T21:39:30.913Z,12.27
2022-12-04T21:42:16.232Z,12.40
2022-12-04T21:44:43.064Z,12.43
2022-12-04T21:47:09.980Z,12.37
2022-12-04T21:49:37.005Z,13.50
2022-12-04T21:52:03.828Z,12.93
2022-12-04T21:54:30.922Z,12.37
2022-12-04T21:56:58.612Z,12.23
2022-12-04T21:59:26.285Z,11.97
2022-12-04T22:01:54.038Z,13.23
2022-12-04T22:04:21.782Z,13.53
2022-12-04T22:06:48.983Z,12.00
2022-12-04T22:09:15.805Z,12.23
2022-12-04T22:11:43.848Z,11.93
2022-12-04T22:14:11.734Z,12.50
2022-12-04T22:16:42.907Z,11.77
2022-12-04T22:19:11.973Z,12.47
2022-12-04T22:21:39.693Z,11.47
2022-12-04T22:24:07.452Z,11.33
2022-12-04T22:26:34.413Z,11.20
2022-12-04T22:29:01.967Z,12.07
2022-12-04T22:31:31.437Z,12.60
2022-12-04T22:34:00.611Z,11.33
2022-12-04T22:36:32.981Z,12.50
2022-12-04T22:39:15.209Z,11.53
2022-12-04T22:41:42.002Z,12.20
2022-12-04T22:44:08.833Z,11.63
2022-12-04T22:46:35.728Z,13.10
2022-12-04T22:49:02.611Z,12.37
2022-12-04T22:51:30.011Z,13.17
2022-12-04T22:53:58.255Z,11.63
2022-12-04T22:56:30.876Z,12.70
2022-12-04T22:58:58.917Z,12.43
2022-12-04T23:01:32.499Z,11.70
2022-12-04T23:04:01.004Z,10.83
2022-12-04T23:06:30.694Z,11.63
2022-12-04T23:09:06.377Z,11.63
2022-12-04T23:11:33.978Z,11.70
2022-12-04T23:14:04.938Z,10.73
2022-12-04T23:16:35.216Z,11.33
2022-12-04T23:19:02.683Z,11.03
2022-12-04T23:21:29.610Z,10.87
2022-12-04T23:23:57.201Z,10.73
2022-12-04T23:26:30.094Z,10.10
2022-12-04T23:28:57.773Z,10.37
2022-12-04T23:31:25.334Z,10.57
2022-12-04T23:33:52.268Z,11.13
2022-12-04T23:36:19.149Z,10.40
2022-12-04T23:38:46.251Z,10.50
2022-12-04T23:41:22.832Z,10.50
2022-12-04T23:43:50.974Z,11.33
2022-12-04T23:46:23.992Z,11.00
2022-12-04T23:48:50.846Z,11.47
2022-12-04T23:51:19.341Z,11.70
2022-12-04T23:53:47.040Z,11.20
2022-12-04T23:56:19.158Z,11.07
2022-12-04T23:58:49.036Z,12.50
